aviador You're here:

KPNC Decoded Metar

PONCA CITY in OK, USA
Report Time2017-05-26 12:53:00
UTC Time2017-05-26 13:08:21
Flight Rules vfr VFR
Wind070° at 03 kt
W.Decomp.*RWY 35: 0.8 kt HW 2.9 kt RCW
W.Rank070° ranks 25
Current wind is below 070° avg. (7.8)
Visibility9999 m
Phenomena:N/A
Clouds:N/A
Expected CloudBase > 1,600 ft AGL from Temp-Dew spread
CeilingNone
Temp21°C (ISA +8)
Dew Point17°C (78% RH)
QNH1003 hPa
Density Alt2,543 ft
Elevation1,010 ft
Report Wrong Elevation
Raw Report
KPNC 261253Z AUTO 07003KT 10SM CLR 21/17 A2963 RMK AO2 SLP022
T02110167=

Extra information for KPNC:More info

Metar Taf Metar & Taf Last 4 Metars F.Rules Stats Wind Profile Meteogram Temp Stats Airport Information Weather charts Add Link Nearby VenuesMetar ALERT Operation Metar Decoded Social comments

AIRNAV info for KPNC